avis per tempestes more information blitzortung!


avis per Pluja more information rain snow radar


Visita la nostra xarxa de llocs de meteo:

Template documentation
and downloads

And another site



Thunderstorms From: 20-07-2018 17:00 Until: 21-07-2018 01:59 warning for: Thunderstorms Level: Yellow info button
Rain From: 20-07-2018 17:00 Until: 21-07-2018 01:59 warning for: Rain Level: Yellow info button

Pagina Historial Weather Underground text

Diari Resum Desembre 7, 2017 Unitats:  Mètric    Imperial   Tant
« Previous Dia
SegĂźent Dia »
Diari Setmana Mensual Anual Personalitzada
  Maxima: Minima: Media:
Temperatura: -17.8 °C -17.3 °C -13.7 °C
Punt de rosada: -17.8 °C -19.9 °C -17.6 °C
Humitat: Humidity % 55 % 61 %
Wind Speed: 0 km/h 0 km/h 4.2 km/h
RĂ fegues de vent: 0 km/h - -
Vent:- - SE
Pression baro: 0 hPa 34669.3 hPa -
Precipitacions: 0 mm    
Historical Graphs
 
 
Dades de taula per Desembre 7, 2017
Temps Temperatura Punt de rosada Pression baro Vent Wind Speed RĂ fegues de vent Humitat Rainfall Rate (Hourly)
-17.8 °C -17.8 °C 0 hPa Calm     Humidity % 0 mm
00:02 -16.1 °C -18.7 °C 34946.9 hPa NNE 6 km/h 6 km/h 71 % 0 mm
00:05 -17.1 °C -19.3 °C 34875.8 hPa WNW 2.6 km/h 5.1 km/h 74 % 0 mm
00:07 -16.1 °C -18.7 °C 34946.9 hPa NNE 6 km/h 6 km/h 71 % 0 mm
00:15 -17.1 °C -19.3 °C 34875.8 hPa Calm   5.1 km/h 75 % 0 mm
00:25 -17.1 °C -19.3 °C 34899.5 hPa WSW 5.1 km/h 5.1 km/h 75 % 0 mm
00:35 -17.1 °C -19.3 °C 34875.8 hPa Calm   2.6 km/h 75 % 0 mm
00:45 -17.1 °C -19.3 °C 34875.8 hPa Calm   2.6 km/h 75 % 0 mm
00:55 -17.1 °C -19.3 °C 34875.8 hPa Calm   2.6 km/h 75 % 0 mm
01:05 -17.1 °C -19.1 °C 34875.8 hPa Calm     76 % 0 mm
01:15 -17.1 °C -19.1 °C 34875.8 hPa Calm     76 % 0 mm
01:25 -17.1 °C -19.2 °C 34875.8 hPa Calm     76 % 0 mm
01:35 -17.2 °C -19.3 °C 34875.8 hPa Calm   2.6 km/h 76 % 0 mm
01:45 -17.2 °C -19.3 °C 34875.8 hPa Calm     76 % 0 mm
01:55 -17.2 °C -19.3 °C 34875.8 hPa NNW 2.6 km/h 5.1 km/h 76 % 0 mm
02:05 -17.2 °C -19.3 °C 34875.8 hPa North 2.6 km/h 2.6 km/h 76 % 0 mm
02:15 -17.2 °C -19.3 °C 34875.8 hPa Calm     76 % 0 mm
02:25 -17.3 °C -19.3 °C 34875.8 hPa Calm     76 % 0 mm
02:35 -17.2 °C -19.3 °C 34875.8 hPa Calm     76 % 0 mm
02:45 -17.1 °C -19.1 °C 34875.8 hPa NNE 2.6 km/h 5.1 km/h 77 % 0 mm
02:55 -16.7 °C -18.7 °C 34875.8 hPa Calm   2.6 km/h 77 % 0 mm
03:05 -16.4 °C -18.4 °C 34875.8 hPa ENE 2.6 km/h 2.6 km/h 77 % 0 mm
03:15 -16.5 °C -18.6 °C 34875.8 hPa ENE 5.1 km/h 5.1 km/h 76 % 0 mm
03:25 -16.2 °C -18.3 °C 34899.5 hPa East 2.6 km/h 5.1 km/h 76 % 0 mm
03:35 -16.2 °C -18.4 °C 34899.5 hPa East 5.1 km/h 5.1 km/h 75 % 0 mm
03:45 -16.3 °C -18.6 °C 34899.5 hPa Calm   5.1 km/h 74 % 0 mm
03:55 -16.1 °C -18.4 °C 34899.5 hPa ESE 2.6 km/h 5.1 km/h 74 % 0 mm
04:05 -15.7 °C -18.2 °C 34899.5 hPa Calm   5.1 km/h 73 % 0 mm
04:15 -15.5 °C -18.1 °C 34899.5 hPa ESE 5.1 km/h 5.1 km/h 72 % 0 mm
04:25 -15.4 °C -17.9 °C 34899.5 hPa SSW 2.6 km/h 5.1 km/h 72 % 0 mm
04:35 -15.3 °C -18.1 °C 34899.5 hPa SSW 5.1 km/h 5.1 km/h 70 % 0 mm
10:44 -15.1 °C -17.9 °C 34899.5 hPa SW 4.2 km/h 4.2 km/h 69 % 0 mm
10:45 -15.1 °C -17.9 °C 34899.5 hPa SW 4.2 km/h 4.2 km/h 69 % 0 mm
10:50 -15.2 °C -18.1 °C 34899.5 hPa WSW 3.1 km/h 3.1 km/h 69 % 0 mm
10:55 -15.1 °C -18 °C 34899.5 hPa WSW 3.1 km/h   69 % 0 mm
11:00 -15.1 °C -18 °C 34946.9 hPa Calm     69 % 0 mm
11:05 -15 °C -17.9 °C 34946.9 hPa ENE 3.7 km/h 3.7 km/h 69 % 0 mm
11:10 -14.8 °C -17.7 °C 34946.9 hPa ESE 6 km/h 6 km/h 69 % 0 mm
11:15 -14.6 °C -17.4 °C 34899.5 hPa NNE 3.1 km/h   69 % 0 mm
11:20 -14.2 °C -17.3 °C 34899.5 hPa East 5.1 km/h 5.1 km/h 68 % 0 mm
11:25 -14 °C -17.1 °C 34899.5 hPa East 6.3 km/h 6.3 km/h 68 % 0 mm
11:30 -14.2 °C -17.4 °C 34899.5 hPa ENE 9 km/h 9 km/h 66 % 0 mm
11:35 -13.9 °C -17.1 °C 34899.5 hPa ENE 6.3 km/h 6.3 km/h 67 % 0 mm
11:40 -13.9 °C -17.2 °C 34899.5 hPa East 8 km/h 8 km/h 66 % 0 mm
11:45 -13.7 °C -17 °C 34875.8 hPa East 6 km/h 6 km/h 66 % 0 mm
11:50 -13.4 °C -16.8 °C 34875.8 hPa Calm   5.1 km/h 66 % 0 mm
11:55 -13.3 °C -16.8 °C 34875.8 hPa NNE 6.3 km/h 6.3 km/h 65 % 0 mm
12:00 -13.2 °C -16.7 °C 34899.5 hPa NNE 3.1 km/h   64 % 0 mm
12:05 -13.1 °C -16.6 °C 34899.5 hPa NE 5.1 km/h 5.1 km/h 64 % 0 mm
12:10 -12.9 °C -16.6 °C 34899.5 hPa ENE 6 km/h 6 km/h 63 % 0 mm
12:15 -12.9 °C -16.6 °C 34875.8 hPa NNE 6 km/h 6 km/h 63 % 0 mm
12:20 -12.8 °C -16.5 °C 34875.8 hPa NNE 6 km/h 6 km/h 63 % 0 mm
12:25 -12.8 °C -16.5 °C 34875.8 hPa NNE 6 km/h 6 km/h 63 % 0 mm
12:30 -12.6 °C -16.4 °C 34875.8 hPa ENE 6 km/h 6 km/h 62 % 0 mm
12:35 -12.6 °C -16.4 °C 34875.8 hPa NE 6.8 km/h 6.8 km/h 62 % 0 mm
12:40 -12.6 °C -16.5 °C 34875.8 hPa NNW 6 km/h 6 km/h 61 % 0 mm
12:45 -12.4 °C -16.3 °C 34875.8 hPa ENE 7.6 km/h 7.6 km/h 61 % 0 mm
12:50 -12.4 °C -16.3 °C 34875.8 hPa NE 11.9 km/h 11.9 km/h 61 % 0 mm
12:55 -12.3 °C -16.3 °C 34875.8 hPa NNE 9 km/h 9 km/h 61 % 0 mm
13:00 -12.2 °C -16.3 °C 34875.8 hPa NE 9 km/h 9 km/h 60 % 0 mm
13:05 -12.1 °C -16.2 °C 34875.8 hPa NE 8 km/h 8 km/h 60 % 0 mm
13:10 -12.1 °C -16.2 °C 34875.8 hPa NNE 11.9 km/h 11.9 km/h 60 % 0 mm
13:20 -12.1 °C -16.3 °C 34841.9 hPa NNE 11.9 km/h 11.9 km/h 59 % 0 mm
13:25 -12.1 °C -16.3 °C 34841.9 hPa ENE 9.8 km/h 9.8 km/h 59 % 0 mm
13:30 -12.1 °C -16.4 °C 34841.9 hPa NNE 10.3 km/h 10.3 km/h 58 % 0 mm
13:35 -12 °C -16.4 °C 34841.9 hPa ENE 11.9 km/h 11.9 km/h 58 % 0 mm
13:40 -11.8 °C -16.2 °C 34841.9 hPa ENE 6 km/h 6 km/h 58 % 0 mm
13:45 -11.7 °C -16.1 °C 34841.9 hPa ENE 6 km/h 6 km/h 58 % 0 mm
13:50 -11.6 °C -16 °C 34841.9 hPa NNE 9 km/h 9 km/h 58 % 0 mm
13:55 -11.5 °C -15.9 °C 34841.9 hPa ENE 6 km/h 6 km/h 58 % 0 mm
14:05 -11.4 °C -15.9 °C 34808.1 hPa NNE 6 km/h 6 km/h 58 % 0 mm
14:10 -11.4 °C -15.9 °C 34808.1 hPa NNE 6 km/h 6 km/h 58 % 0 mm
14:15 -11.4 °C -15.8 °C 34808.1 hPa NNE 9 km/h 9 km/h 58 % 0 mm
14:20 -11.4 °C -15.8 °C 34808.1 hPa NNE 10.3 km/h 10.3 km/h 58 % 0 mm
14:25 -11.4 °C -15.8 °C 34808.1 hPa NE 10.3 km/h 10.3 km/h 58 % 0 mm
14:30 -11.4 °C -16 °C 34808.1 hPa NNE 6.3 km/h 6.3 km/h 57 % 0 mm
14:35 -11.4 °C -15.9 °C 34808.1 hPa NE 5.1 km/h 7.7 km/h 58 % 0 mm
14:40 -11.6 °C -16.1 °C 34808.1 hPa NNE 9 km/h 9 km/h 57 % 0 mm
14:45 -11.6 °C -16.2 °C 34808.1 hPa NE 6 km/h 6 km/h 57 % 0 mm
15:00 -11.5 °C -16.1 °C 34808.1 hPa NE 2.6 km/h 10.3 km/h 57 % 0 mm
15:05 -11.4 °C -16 °C 34808.1 hPa ENE 6 km/h 6 km/h 57 % 0 mm
15:10 -11.3 °C -15.9 °C 34808.1 hPa NNE 3.1 km/h 3.1 km/h 57 % 0 mm
15:15 -11.3 °C -15.9 °C 34808.1 hPa NNE 7.7 km/h 7.7 km/h 57 % 0 mm
15:20 -11.2 °C -15.8 °C 34808.1 hPa NE 9 km/h 9 km/h 57 % 0 mm
15:25 -11.2 °C -15.8 °C 34808.1 hPa NNE 6 km/h 6 km/h 57 % 0 mm
15:30 -11.2 °C -15.7 °C 34808.1 hPa NNE 2.6 km/h 5.1 km/h 57 % 0 mm
15:40 -11.2 °C -15.9 °C 34808.1 hPa NNE 7.6 km/h 7.6 km/h 56 % 0 mm
15:45 -11.2 °C -15.8 °C 34808.1 hPa NE 2.6 km/h 7.7 km/h 57 % 0 mm
15:50 -11.2 °C -15.8 °C 34808.1 hPa NW 6 km/h 6 km/h 57 % 0 mm
15:55 -11.3 °C -16 °C 34808.1 hPa NNE 3.1 km/h 3.1 km/h 56 % 0 mm
16:00 -11.3 °C -15.9 °C 34808.1 hPa NNE 3.1 km/h 3.1 km/h 57 % 0 mm
16:05 -11.3 °C -15.9 °C 34808.1 hPa North 3.1 km/h   57 % 0 mm
16:10 -11.3 °C -16.1 °C 34808.1 hPa Calm     56 % 0 mm
16:20 -11.4 °C -15.9 °C 34808.1 hPa West 3.1 km/h   57 % 0 mm
16:25 -11.5 °C -16.2 °C 34808.1 hPa NW 6 km/h 6 km/h 56 % 0 mm
16:30 -11.6 °C -16.3 °C 34808.1 hPa NNE 6 km/h 6 km/h 56 % 0 mm
16:35 -11.6 °C -16.3 °C 34808.1 hPa North 3.1 km/h 3.1 km/h 56 % 0 mm
16:40 -11.6 °C -16.2 °C 34808.1 hPa Calm     57 % 0 mm
16:45 -11.6 °C -16.2 °C 34808.1 hPa NNW 3.1 km/h   57 % 0 mm
16:50 -11.7 °C -16.3 °C 34808.1 hPa NNE 6 km/h   56 % 0 mm
16:55 -11.8 °C -16.4 °C 34808.1 hPa North 2.3 km/h   56 % 0 mm
17:00 -11.8 °C -16.5 °C 34808.1 hPa Calm     56 % 0 mm
17:05 -11.9 °C -16.6 °C 34808.1 hPa NW 3.1 km/h   56 % 0 mm
17:10 -11.9 °C -16.6 °C 34808.1 hPa NNE 3.1 km/h 3.1 km/h 56 % 0 mm
17:15 -11.9 °C -16.6 °C 34808.1 hPa ENE 3.1 km/h   56 % 0 mm
17:20 -12 °C -16.7 °C 34808.1 hPa North 3.1 km/h   56 % 0 mm
17:25 -12.1 °C -16.7 °C 34808.1 hPa NW 6 km/h 6 km/h 56 % 0 mm
17:30 -12.1 °C -16.7 °C 34808.1 hPa Calm     56 % 0 mm
17:40 -12.3 °C -16.9 °C 34808.1 hPa West 6 km/h 6 km/h 56 % 0 mm
17:45 -12.4 °C -16.9 °C 34808.1 hPa WSW 6 km/h 6 km/h 57 % 0 mm
17:55 -12.4 °C -16.9 °C 34808.1 hPa Calm     57 % 0 mm
18:00 -12.4 °C -16.9 °C 34808.1 hPa West 6 km/h 6 km/h 57 % 0 mm
18:05 -12.3 °C -16.8 °C 34808.1 hPa West 3.1 km/h   57 % 0 mm
18:10 -12.3 °C -17 °C 34808.1 hPa WSW 6 km/h   56 % 0 mm
18:15 -12.4 °C -17.1 °C 34808.1 hPa Calm     56 % 0 mm
18:20 -12.4 °C -17.1 °C 34808.1 hPa SW 4.2 km/h 4.2 km/h 56 % 0 mm
18:25 -12.6 °C -17.2 °C 34808.1 hPa SW 6 km/h 6 km/h 56 % 0 mm
18:30 -12.7 °C -17.3 °C 34808.1 hPa West 6 km/h 6 km/h 56 % 0 mm
18:35 -12.6 °C -17.3 °C 34808.1 hPa West 6 km/h 6 km/h 56 % 0 mm
18:40 -12.6 °C -17.2 °C 34808.1 hPa West 6 km/h 6 km/h 56 % 0 mm
18:50 -12.6 °C -17.2 °C 34808.1 hPa SW 3.7 km/h 3.7 km/h 56 % 0 mm
18:55 -15.4 °C -19.6 °C 34740.4 hPa Calm     58 % 0 mm
19:00 -12.7 °C -17.5 °C 34774.2 hPa Calm     55 % 0 mm
19:05 -12.8 °C -17.6 °C 34774.2 hPa SW 2.3 km/h   55 % 0 mm
19:25 -13.1 °C -17.8 °C 34808.1 hPa Calm     55 % 0 mm
19:30 -13.1 °C -17.8 °C 34774.2 hPa Calm     55 % 0 mm
19:35 -13.1 °C -17.8 °C 34774.2 hPa SW 6 km/h 6 km/h 55 % 0 mm
19:40 -13.1 °C -17.8 °C 34774.2 hPa WSW 6 km/h 6 km/h 55 % 0 mm
19:45 -13.1 °C -17.8 °C 34774.2 hPa WSW 6 km/h 6 km/h 55 % 0 mm
19:50 -13.1 °C -17.8 °C 34774.2 hPa WSW 6 km/h 6 km/h 55 % 0 mm
19:55 -15.9 °C -19.8 °C 34703.1 hPa SSW 5.1 km/h 5.1 km/h 60 % 0 mm
20:00 -13.2 °C -17.9 °C 34774.2 hPa WSW 6 km/h 6 km/h 55 % 0 mm
20:05 -13.2 °C -17.9 °C 34774.2 hPa WSW 3.1 km/h 3.1 km/h 55 % 0 mm
20:15 -15.9 °C -19.8 °C 34703.1 hPa West 2.6 km/h 5.1 km/h 60 % 0 mm
20:20 -13.3 °C -18 °C 34774.2 hPa West 6 km/h 6 km/h 55 % 0 mm
20:25 -13.4 °C -18.1 °C 34774.2 hPa SW 6 km/h 6 km/h 55 % 0 mm
20:30 -13.6 °C -18.3 °C 34774.2 hPa WSW 6 km/h 6 km/h 55 % 0 mm
20:35 -13.6 °C -18.3 °C 34774.2 hPa Calm     55 % 0 mm
20:50 -13.7 °C -18.4 °C 34808.1 hPa West 4.2 km/h 4.2 km/h 55 % 0 mm
20:55 -13.7 °C -18.4 °C 34808.1 hPa WSW 6 km/h 6 km/h 55 % 0 mm
21:00 -13.7 °C -18.4 °C 34774.2 hPa West 3.1 km/h 3.1 km/h 55 % 0 mm
21:05 -15.9 °C -19.7 °C 34669.3 hPa Calm     61 % 0 mm
21:10 -13.9 °C -18.6 °C 34774.2 hPa Calm     55 % 0 mm
21:15 -13.9 °C -18.6 °C 34774.2 hPa WNW 3.7 km/h   55 % 0 mm
21:25 -16.1 °C -19.8 °C 34669.3 hPa WSW 2.6 km/h 5.1 km/h 61 % 0 mm
21:30 -14 °C -18.7 °C 34774.2 hPa SW 6 km/h 6 km/h 55 % 0 mm
21:35 -14.1 °C -18.7 °C 34774.2 hPa WSW 6 km/h 6 km/h 55 % 0 mm
21:40 -14.1 °C -18.7 °C 34774.2 hPa WSW 6 km/h 6 km/h 55 % 0 mm
21:45 -14.2 °C -18.8 °C 34774.2 hPa WSW 5.6 km/h 5.6 km/h 55 % 0 mm
21:50 -14.2 °C -18.9 °C 34774.2 hPa Calm     55 % 0 mm
21:55 -14.2 °C -18.9 °C 34774.2 hPa Calm     55 % 0 mm
22:00 -14.3 °C -19 °C 34774.2 hPa SW 3.7 km/h 3.7 km/h 55 % 0 mm
22:05 -15.7 °C -19.8 °C 34669.3 hPa NNE 2.6 km/h 5.1 km/h 59 % 0 mm
22:10 -14.4 °C -18.9 °C 34774.2 hPa Calm     56 % 0 mm
22:15 -15.7 °C -19.9 °C 34669.3 hPa NNE 2.6 km/h 5.1 km/h 58 % 0 mm
22:20 -14.5 °C -19 °C 34774.2 hPa SW 3.1 km/h 3.1 km/h 56 % 0 mm
22:25 -14.6 °C -19.1 °C 34774.2 hPa Calm     56 % 0 mm
22:30 -14.6 °C -19.1 °C 34774.2 hPa SW 3.1 km/h   56 % 0 mm
22:35 -14.6 °C -19.1 °C 34774.2 hPa SW 6 km/h 6 km/h 56 % 0 mm
22:40 -14.7 °C -19.1 °C 34774.2 hPa Calm     57 % 0 mm
22:50 -14.6 °C -19.1 °C 34740.4 hPa West 6 km/h 6 km/h 56 % 0 mm
22:55 -14.7 °C -19.2 °C 34740.4 hPa West 2.3 km/h   56 % 0 mm
23:05 -14.7 °C -19.2 °C 34740.4 hPa West 4.2 km/h 4.2 km/h 56 % 0 mm
23:10 -14.6 °C -19.1 °C 34740.4 hPa West 3.7 km/h 3.7 km/h 56 % 0 mm
23:15 -14.7 °C -19.2 °C 34740.4 hPa West 6 km/h 6 km/h 56 % 0 mm
23:25 -14.6 °C -19.1 °C 34740.4 hPa NW 3.1 km/h 3.1 km/h 56 % 0 mm
23:30 -14.6 °C -19.1 °C 34740.4 hPa Calm     56 % 0 mm
23:35 -14.7 °C -19.2 °C 34740.4 hPa NNE 9 km/h 9 km/h 56 % 0 mm
23:40 -14.8 °C -19.3 °C 34740.4 hPa NNW 3.7 km/h   56 % 0 mm
23:45 -14.7 °C -19.2 °C 34740.4 hPa WNW 3.1 km/h 3.1 km/h 56 % 0 mm
23:55 -14.9 °C -19.4 °C 34740.4 hPa Calm     56 % 0 mm
Meteo Sesrovires
Elogis d' Weather Underground - 2 mb

Guio original per  Jim McMurry - jmcmurry@mwt.net Adaptat per a la plantilla per  Wim van der Kuil - Leuven-Template.eu

Trobareu la nostra informacio del temps tambe a:

Weather Underground

AWEKAS